sensor_id;sensor_type;location;lat;lon;timestamp;temperature;humidity
22185;DHT22;11258;52.516;13.318;2023-03-24T00:00:13;11.90;99.90
22185;DHT22;11258;52.516;13.318;2023-03-24T00:02:41;11.90;99.90
22185;DHT22;11258;52.516;13.318;2023-03-24T00:05:12;11.90;99.90
22185;DHT22;11258;52.516;13.318;2023-03-24T00:07:38;11.90;99.90
22185;DHT22;11258;52.516;13.318;2023-03-24T00:10:06;11.80;99.90
22185;DHT22;11258;52.516;13.318;2023-03-24T00:12:34;11.80;99.90
22185;DHT22;11258;52.516;13.318;2023-03-24T00:15:04;11.80;99.90
22185;DHT22;11258;52.516;13.318;2023-03-24T00:17:30;11.80;99.90
22185;DHT22;11258;52.516;13.318;2023-03-24T00:19:56;11.80;99.90
22185;DHT22;11258;52.516;13.318;2023-03-24T00:22:22;11.80;99.90
22185;DHT22;11258;52.516;13.318;2023-03-24T00:24:48;11.80;99.90
22185;DHT22;11258;52.516;13.318;2023-03-24T00:27:14;11.80;99.90
22185;DHT22;11258;52.516;13.318;2023-03-24T00:29:42;11.80;99.90
22185;DHT22;11258;52.516;13.318;2023-03-24T00:32:08;11.80;99.90
22185;DHT22;11258;52.516;13.318;2023-03-24T00:34:34;11.80;99.90
22185;DHT22;11258;52.516;13.318;2023-03-24T00:37:03;11.80;99.90
22185;DHT22;11258;52.516;13.318;2023-03-24T00:39:29;11.80;99.90
22185;DHT22;11258;52.516;13.318;2023-03-24T00:41:55;11.80;99.90
22185;DHT22;11258;52.516;13.318;2023-03-24T00:44:23;11.80;99.90
22185;DHT22;11258;52.516;13.318;2023-03-24T00:46:50;11.70;99.90
22185;DHT22;11258;52.516;13.318;2023-03-24T00:49:29;11.70;99.90
22185;DHT22;11258;52.516;13.318;2023-03-24T00:52:27;11.70;99.90
22185;DHT22;11258;52.516;13.318;2023-03-24T00:54:58;11.70;99.90
22185;DHT22;11258;52.516;13.318;2023-03-24T00:57:27;11.70;99.90
22185;DHT22;11258;52.516;13.318;2023-03-24T00:59:55;11.70;99.90
22185;DHT22;11258;52.516;13.318;2023-03-24T01:02:23;11.70;99.90
22185;DHT22;11258;52.516;13.318;2023-03-24T01:04:57;11.70;99.90
22185;DHT22;11258;52.516;13.318;2023-03-24T01:07:26;11.70;99.90
22185;DHT22;11258;52.516;13.318;2023-03-24T01:09:53;11.70;99.90
22185;DHT22;11258;52.516;13.318;2023-03-24T01:12:35;11.70;99.90
22185;DHT22;11258;52.516;13.318;2023-03-24T01:15:11;11.70;99.90
22185;DHT22;11258;52.516;13.318;2023-03-24T01:17:37;11.70;99.90
22185;DHT22;11258;52.516;13.318;2023-03-24T01:20:03;11.70;99.90
22185;DHT22;11258;52.516;13.318;2023-03-24T01:22:33;11.70;99.90
22185;DHT22;11258;52.516;13.318;2023-03-24T01:25:03;11.70;99.90
22185;DHT22;11258;52.516;13.318;2023-03-24T01:27:29;11.70;99.90
22185;DHT22;11258;52.516;13.318;2023-03-24T01:30:04;11.70;99.90
22185;DHT22;11258;52.516;13.318;2023-03-24T01:32:30;11.70;99.90
22185;DHT22;11258;52.516;13.318;2023-03-24T01:34:56;11.80;99.90
22185;DHT22;11258;52.516;13.318;2023-03-24T01:37:21;11.80;99.90
22185;DHT22;11258;52.516;13.318;2023-03-24T01:39:50;11.70;99.90
22185;DHT22;11258;52.516;13.318;2023-03-24T01:42:22;11.70;99.90
22185;DHT22;11258;52.516;13.318;2023-03-24T01:44:50;11.80;99.90
22185;DHT22;11258;52.516;13.318;2023-03-24T01:47:16;11.70;99.90
22185;DHT22;11258;52.516;13.318;2023-03-24T01:49:54;11.70;99.90
22185;DHT22;11258;52.516;13.318;2023-03-24T01:52:27;11.80;99.90
22185;DHT22;11258;52.516;13.318;2023-03-24T01:55:00;11.70;99.90
22185;DHT22;11258;52.516;13.318;2023-03-24T01:57:31;11.70;99.90
22185;DHT22;11258;52.516;13.318;2023-03-24T02:00:05;11.80;99.90
22185;DHT22;11258;52.516;13.318;2023-03-24T02:02:33;11.70;99.90
22185;DHT22;11258;52.516;13.318;2023-03-24T02:05:04;11.80;99.90
22185;DHT22;11258;52.516;13.318;2023-03-24T02:10:10;11.80;99.90
22185;DHT22;11258;52.516;13.318;2023-03-24T02:12:38;11.80;99.90
22185;DHT22;11258;52.516;13.318;2023-03-24T02:15:07;11.80;99.90
22185;DHT22;11258;52.516;13.318;2023-03-24T02:39:36;12.00;99.90
22185;DHT22;11258;52.516;13.318;2023-03-24T02:54:10;12.10;99.90
22185;DHT22;11258;52.516;13.318;2023-03-24T02:59:19;12.00;99.90
22185;DHT22;11258;52.516;13.318;2023-03-24T03:01:51;12.00;99.90
22185;DHT22;11258;52.516;13.318;2023-03-24T03:04:27;11.90;99.90
22185;DHT22;11258;52.516;13.318;2023-03-24T03:07:00;11.90;99.90
22185;DHT22;11258;52.516;13.318;2023-03-24T03:09:27;11.90;99.90
22185;DHT22;11258;52.516;13.318;2023-03-24T03:11:56;11.90;99.90
22185;DHT22;11258;52.516;13.318;2023-03-24T03:14:34;11.80;99.90
22185;DHT22;11258;52.516;13.318;2023-03-24T03:19:46;11.80;99.90
22185;DHT22;11258;52.516;13.318;2023-03-24T03:22:22;11.80;99.90
22185;DHT22;11258;52.516;13.318;2023-03-24T03:24:51;11.80;99.90
22185;DHT22;11258;52.516;13.318;2023-03-24T03:27:25;11.80;99.90
22185;DHT22;11258;52.516;13.318;2023-03-24T03:30:17;11.80;99.90
22185;DHT22;11258;52.516;13.318;2023-03-24T03:32:58;11.80;99.90
22185;DHT22;11258;52.516;13.318;2023-03-24T03:35:44;11.70;99.90
22185;DHT22;11258;52.516;13.318;2023-03-24T03:38:27;11.70;99.90
22185;DHT22;11258;52.516;13.318;2023-03-24T03:40:59;11.70;99.90
22185;DHT22;11258;52.516;13.318;2023-03-24T03:43:27;11.70;99.90
22185;DHT22;11258;52.516;13.318;2023-03-24T03:45:54;11.70;99.90
22185;DHT22;11258;52.516;13.318;2023-03-24T03:48:20;11.70;99.90
22185;DHT22;11258;52.516;13.318;2023-03-24T03:50:47;11.70;99.90
22185;DHT22;11258;52.516;13.318;2023-03-24T03:53:16;11.70;99.90
22185;DHT22;11258;52.516;13.318;2023-03-24T03:55:42;11.80;99.90
22185;DHT22;11258;52.516;13.318;2023-03-24T03:58:09;11.80;99.90
22185;DHT22;11258;52.516;13.318;2023-03-24T04:00:35;11.70;99.90
22185;DHT22;11258;52.516;13.318;2023-03-24T04:05:40;11.70;99.90
22185;DHT22;11258;52.516;13.318;2023-03-24T04:08:16;11.80;99.90
22185;DHT22;11258;52.516;13.318;2023-03-24T04:27:22;11.90;99.90
22185;DHT22;11258;52.516;13.318;2023-03-24T04:32:54;11.90;99.90
22185;DHT22;11258;52.516;13.318;2023-03-24T04:35:36;11.90;99.90
22185;DHT22;11258;52.516;13.318;2023-03-24T04:38:10;11.90;99.90
22185;DHT22;11258;52.516;13.318;2023-03-24T04:40:40;11.90;99.90
22185;DHT22;11258;52.516;13.318;2023-03-24T04:43:11;11.90;99.90
22185;DHT22;11258;52.516;13.318;2023-03-24T04:45:38;11.90;99.90
22185;DHT22;11258;52.516;13.318;2023-03-24T04:48:05;11.90;99.90
22185;DHT22;11258;52.516;13.318;2023-03-24T04:50:41;12.00;99.90
22185;DHT22;11258;52.516;13.318;2023-03-24T04:53:08;12.00;99.90
22185;DHT22;11258;52.516;13.318;2023-03-24T04:55:52;12.00;99.90
22185;DHT22;11258;52.516;13.318;2023-03-24T04:58:20;12.00;99.90
22185;DHT22;11258;52.516;13.318;2023-03-24T05:00:47;12.00;99.90
22185;DHT22;11258;52.516;13.318;2023-03-24T05:03:15;12.10;99.90
22185;DHT22;11258;52.516;13.318;2023-03-24T05:05:46;12.10;99.90
22185;DHT22;11258;52.516;13.318;2023-03-24T05:08:12;12.10;99.90
22185;DHT22;11258;52.516;13.318;2023-03-24T05:10:38;12.10;99.90
22185;DHT22;11258;52.516;13.318;2023-03-24T05:13:05;12.10;99.90
22185;DHT22;11258;52.516;13.318;2023-03-24T05:15:31;12.10;99.90
22185;DHT22;11258;52.516;13.318;2023-03-24T05:17:57;12.10;99.90
22185;DHT22;11258;52.516;13.318;2023-03-24T05:20:25;12.10;99.90
22185;DHT22;11258;52.516;13.318;2023-03-24T05:22:51;12.10;99.90
22185;DHT22;11258;52.516;13.318;2023-03-24T05:25:17;12.20;99.90
22185;DHT22;11258;52.516;13.318;2023-03-24T05:27:44;12.20;99.90
22185;DHT22;11258;52.516;13.318;2023-03-24T05:30:10;12.20;99.90
22185;DHT22;11258;52.516;13.318;2023-03-24T05:32:36;12.20;99.90
22185;DHT22;11258;52.516;13.318;2023-03-24T05:35:02;12.20;99.90
22185;DHT22;11258;52.516;13.318;2023-03-24T05:37:28;12.20;99.90
22185;DHT22;11258;52.516;13.318;2023-03-24T05:39:54;12.30;99.90
22185;DHT22;11258;52.516;13.318;2023-03-24T05:42:20;12.30;99.90
22185;DHT22;11258;52.516;13.318;2023-03-24T05:44:46;12.30;99.90
22185;DHT22;11258;52.516;13.318;2023-03-24T05:47:12;12.30;99.90
22185;DHT22;11258;52.516;13.318;2023-03-24T05:49:43;12.30;99.90
22185;DHT22;11258;52.516;13.318;2023-03-24T05:52:10;12.30;99.90
22185;DHT22;11258;52.516;13.318;2023-03-24T05:54:36;12.30;99.90
22185;DHT22;11258;52.516;13.318;2023-03-24T05:57:04;12.30;99.90
22185;DHT22;11258;52.516;13.318;2023-03-24T05:59:33;12.40;99.90
22185;DHT22;11258;52.516;13.318;2023-03-24T06:01:58;12.40;99.90
22185;DHT22;11258;52.516;13.318;2023-03-24T06:04:24;12.40;99.90
22185;DHT22;11258;52.516;13.318;2023-03-24T06:06:55;12.40;99.90
22185;DHT22;11258;52.516;13.318;2023-03-24T06:09:24;12.50;99.90
22185;DHT22;11258;52.516;13.318;2023-03-24T06:11:50;12.50;99.90
22185;DHT22;11258;52.516;13.318;2023-03-24T06:14:16;12.50;99.90
22185;DHT22;11258;52.516;13.318;2023-03-24T06:16:41;12.50;99.90
22185;DHT22;11258;52.516;13.318;2023-03-24T06:19:07;12.50;99.90
22185;DHT22;11258;52.516;13.318;2023-03-24T06:21:33;12.60;99.90
22185;DHT22;11258;52.516;13.318;2023-03-24T06:23:59;12.60;99.90
22185;DHT22;11258;52.516;13.318;2023-03-24T06:26:26;12.70;99.90
22185;DHT22;11258;52.516;13.318;2023-03-24T06:28:55;12.70;99.90
22185;DHT22;11258;52.516;13.318;2023-03-24T06:31:21;12.80;99.90
22185;DHT22;11258;52.516;13.318;2023-03-24T06:33:49;12.90;99.90
22185;DHT22;11258;52.516;13.318;2023-03-24T06:36:14;12.90;99.90
22185;DHT22;11258;52.516;13.318;2023-03-24T06:38:40;12.90;99.90
22185;DHT22;11258;52.516;13.318;2023-03-24T06:41:06;12.90;99.90
22185;DHT22;11258;52.516;13.318;2023-03-24T06:43:32;12.90;99.90
22185;DHT22;11258;52.516;13.318;2023-03-24T06:45:59;12.90;99.90
22185;DHT22;11258;52.516;13.318;2023-03-24T06:48:26;12.90;99.90
22185;DHT22;11258;52.516;13.318;2023-03-24T06:50:52;12.90;99.90
22185;DHT22;11258;52.516;13.318;2023-03-24T06:53:18;13.00;99.90
22185;DHT22;11258;52.516;13.318;2023-03-24T06:55:46;13.00;99.90
22185;DHT22;11258;52.516;13.318;2023-03-24T06:58:12;13.10;99.90
22185;DHT22;11258;52.516;13.318;2023-03-24T07:00:39;13.10;99.90
22185;DHT22;11258;52.516;13.318;2023-03-24T07:03:06;13.20;99.90
22185;DHT22;11258;52.516;13.318;2023-03-24T07:05:42;13.20;99.90
22185;DHT22;11258;52.516;13.318;2023-03-24T07:08:09;13.20;99.90
22185;DHT22;11258;52.516;13.318;2023-03-24T07:10:39;13.20;99.90
22185;DHT22;11258;52.516;13.318;2023-03-24T07:13:06;13.30;99.90
22185;DHT22;11258;52.516;13.318;2023-03-24T07:15:32;13.40;99.90
22185;DHT22;11258;52.516;13.318;2023-03-24T07:17:58;13.50;99.90
22185;DHT22;11258;52.516;13.318;2023-03-24T07:20:24;13.50;99.90
22185;DHT22;11258;52.516;13.318;2023-03-24T07:22:49;13.60;99.90
22185;DHT22;11258;52.516;13.318;2023-03-24T07:25:15;13.80;99.90
22185;DHT22;11258;52.516;13.318;2023-03-24T07:27:44;13.90;99.90
22185;DHT22;11258;52.516;13.318;2023-03-24T07:30:10;14.10;99.90
22185;DHT22;11258;52.516;13.318;2023-03-24T07:32:36;14.40;99.90
22185;DHT22;11258;52.516;13.318;2023-03-24T07:35:05;14.80;99.90
22185;DHT22;11258;52.516;13.318;2023-03-24T07:37:31;15.40;99.90
22185;DHT22;11258;52.516;13.318;2023-03-24T07:39:57;15.50;99.90
22185;DHT22;11258;52.516;13.318;2023-03-24T07:42:23;15.40;99.90
22185;DHT22;11258;52.516;13.318;2023-03-24T07:44:49;15.10;99.90
22185;DHT22;11258;52.516;13.318;2023-03-24T07:47:16;15.00;99.90
22185;DHT22;11258;52.516;13.318;2023-03-24T07:49:42;14.70;99.90
22185;DHT22;11258;52.516;13.318;2023-03-24T07:52:07;14.50;99.90
22185;DHT22;11258;52.516;13.318;2023-03-24T07:54:33;14.50;99.90
22185;DHT22;11258;52.516;13.318;2023-03-24T07:57:00;14.30;99.90
22185;DHT22;11258;52.516;13.318;2023-03-24T07:59:26;14.20;99.90
22185;DHT22;11258;52.516;13.318;2023-03-24T08:01:52;14.10;99.90
22185;DHT22;11258;52.516;13.318;2023-03-24T08:04:18;14.00;99.90
22185;DHT22;11258;52.516;13.318;2023-03-24T08:06:44;14.00;99.90
22185;DHT22;11258;52.516;13.318;2023-03-24T08:09:10;13.90;99.90
22185;DHT22;11258;52.516;13.318;2023-03-24T08:11:36;13.80;99.90
22185;DHT22;11258;52.516;13.318;2023-03-24T08:14:02;13.80;99.90
22185;DHT22;11258;52.516;13.318;2023-03-24T08:16:28;13.80;99.90
22185;DHT22;11258;52.516;13.318;2023-03-24T08:18:54;13.80;99.90
22185;DHT22;11258;52.516;13.318;2023-03-24T08:21:23;13.80;99.90
22185;DHT22;11258;52.516;13.318;2023-03-24T08:23:49;13.80;99.90
22185;DHT22;11258;52.516;13.318;2023-03-24T08:26:15;13.80;99.90
22185;DHT22;11258;52.516;13.318;2023-03-24T08:28:40;13.70;99.90
22185;DHT22;11258;52.516;13.318;2023-03-24T08:31:07;13.70;99.90
22185;DHT22;11258;52.516;13.318;2023-03-24T08:33:33;13.60;99.90
22185;DHT22;11258;52.516;13.318;2023-03-24T08:35:59;13.60;99.90
22185;DHT22;11258;52.516;13.318;2023-03-24T08:38:26;13.60;99.90
22185;DHT22;11258;52.516;13.318;2023-03-24T08:41:01;13.60;99.90
22185;DHT22;11258;52.516;13.318;2023-03-24T08:43:33;13.60;99.90
22185;DHT22;11258;52.516;13.318;2023-03-24T08:46:00;13.60;99.90
22185;DHT22;11258;52.516;13.318;2023-03-24T08:48:27;13.50;99.90
22185;DHT22;11258;52.516;13.318;2023-03-24T08:50:54;13.50;99.90
22185;DHT22;11258;52.516;13.318;2023-03-24T08:53:20;13.60;99.90
22185;DHT22;11258;52.516;13.318;2023-03-24T08:55:46;13.60;99.90
22185;DHT22;11258;52.516;13.318;2023-03-24T08:58:19;13.70;99.90
22185;DHT22;11258;52.516;13.318;2023-03-24T09:00:46;13.80;99.90
22185;DHT22;11258;52.516;13.318;2023-03-24T09:03:14;13.90;99.90
22185;DHT22;11258;52.516;13.318;2023-03-24T09:05:43;13.90;99.90
22185;DHT22;11258;52.516;13.318;2023-03-24T09:08:10;13.90;99.90
22185;DHT22;11258;52.516;13.318;2023-03-24T09:10:38;14.00;99.90
22185;DHT22;11258;52.516;13.318;2023-03-24T09:13:03;14.10;99.90
22185;DHT22;11258;52.516;13.318;2023-03-24T09:15:29;14.00;99.90
22185;DHT22;11258;52.516;13.318;2023-03-24T09:17:55;14.10;99.90
22185;DHT22;11258;52.516;13.318;2023-03-24T09:20:21;14.10;99.90
22185;DHT22;11258;52.516;13.318;2023-03-24T09:22:47;14.10;99.90
22185;DHT22;11258;52.516;13.318;2023-03-24T09:25:17;14.10;99.90
22185;DHT22;11258;52.516;13.318;2023-03-24T09:27:43;14.20;99.90
22185;DHT22;11258;52.516;13.318;2023-03-24T09:30:10;14.30;99.90
22185;DHT22;11258;52.516;13.318;2023-03-24T09:32:36;14.40;99.90
22185;DHT22;11258;52.516;13.318;2023-03-24T09:35:03;14.40;99.90
22185;DHT22;11258;52.516;13.318;2023-03-24T09:37:30;14.60;99.90
22185;DHT22;11258;52.516;13.318;2023-03-24T09:39:56;14.90;99.90
22185;DHT22;11258;52.516;13.318;2023-03-24T09:42:27;15.30;99.90
22185;DHT22;11258;52.516;13.318;2023-03-24T09:44:56;15.80;99.90
22185;DHT22;11258;52.516;13.318;2023-03-24T09:47:28;15.90;99.90
22185;DHT22;11258;52.516;13.318;2023-03-24T09:49:57;16.10;99.90
22185;DHT22;11258;52.516;13.318;2023-03-24T09:52:31;16.30;99.90
22185;DHT22;11258;52.516;13.318;2023-03-24T09:54:58;16.50;99.90
22185;DHT22;11258;52.516;13.318;2023-03-24T09:57:47;16.60;99.90
22185;DHT22;11258;52.516;13.318;2023-03-24T10:02:42;16.80;99.90
22185;DHT22;11258;52.516;13.318;2023-03-24T10:05:20;16.60;99.90
22185;DHT22;11258;52.516;13.318;2023-03-24T10:08:14;16.40;99.90
22185;DHT22;11258;52.516;13.318;2023-03-24T10:13:58;16.20;99.90
22185;DHT22;11258;52.516;13.318;2023-03-24T10:24:44;16.30;99.90
22185;DHT22;11258;52.516;13.318;2023-03-24T10:29:47;16.10;99.90
22185;DHT22;11258;52.516;13.318;2023-03-24T10:32:22;16.10;99.90
22185;DHT22;11258;52.516;13.318;2023-03-24T10:34:58;16.30;99.90
22185;DHT22;11258;52.516;13.318;2023-03-24T10:37:28;16.70;99.90
22185;DHT22;11258;52.516;13.318;2023-03-24T10:39:54;17.10;99.90
22185;DHT22;11258;52.516;13.318;2023-03-24T10:42:24;17.40;99.90
22185;DHT22;11258;52.516;13.318;2023-03-24T10:44:51;17.60;99.90
22185;DHT22;11258;52.516;13.318;2023-03-24T10:47:24;17.60;99.90
22185;DHT22;11258;52.516;13.318;2023-03-24T10:49:54;17.40;99.90
22185;DHT22;11258;52.516;13.318;2023-03-24T10:52:21;17.10;99.90
22185;DHT22;11258;52.516;13.318;2023-03-24T10:54:57;17.00;99.90
22185;DHT22;11258;52.516;13.318;2023-03-24T10:57:24;16.70;99.90
22185;DHT22;11258;52.516;13.318;2023-03-24T10:59:57;16.60;99.90
22185;DHT22;11258;52.516;13.318;2023-03-24T11:02:29;16.60;99.90
22185;DHT22;11258;52.516;13.318;2023-03-24T11:05:17;16.50;99.90
22185;DHT22;11258;52.516;13.318;2023-03-24T11:07:45;16.50;99.90
22185;DHT22;11258;52.516;13.318;2023-03-24T11:10:16;16.50;99.90
22185;DHT22;11258;52.516;13.318;2023-03-24T11:13:03;16.50;99.90
22185;DHT22;11258;52.516;13.318;2023-03-24T11:15:34;16.60;99.90
22185;DHT22;11258;52.516;13.318;2023-03-24T11:18:14;16.60;99.90
22185;DHT22;11258;52.516;13.318;2023-03-24T11:20:46;16.70;99.90
22185;DHT22;11258;52.516;13.318;2023-03-24T11:25:41;17.30;99.90
22185;DHT22;11258;52.516;13.318;2023-03-24T11:28:15;17.70;99.90
22185;DHT22;11258;52.516;13.318;2023-03-24T11:30:47;18.10;99.90
22185;DHT22;11258;52.516;13.318;2023-03-24T11:35:50;18.10;99.90
22185;DHT22;11258;52.516;13.318;2023-03-24T11:38:18;18.10;99.90
22185;DHT22;11258;52.516;13.318;2023-03-24T11:40:56;17.90;99.90
22185;DHT22;11258;52.516;13.318;2023-03-24T11:43:27;17.70;99.90
22185;DHT22;11258;52.516;13.318;2023-03-24T11:46:04;17.80;99.90
22185;DHT22;11258;52.516;13.318;2023-03-24T11:51:29;17.90;99.90
22185;DHT22;11258;52.516;13.318;2023-03-24T11:53:57;18.00;99.90
22185;DHT22;11258;52.516;13.318;2023-03-24T11:59:20;18.10;99.90
22185;DHT22;11258;52.516;13.318;2023-03-24T12:13:11;18.00;99.90
22185;DHT22;11258;52.516;13.318;2023-03-24T12:16:24;18.00;99.90
22185;DHT22;11258;52.516;13.318;2023-03-24T12:23:59;17.70;99.90
22185;DHT22;11258;52.516;13.318;2023-03-24T12:26:33;17.60;99.90
22185;DHT22;11258;52.516;13.318;2023-03-24T12:37:45;17.00;99.90
22185;DHT22;11258;52.516;13.318;2023-03-24T12:40:49;17.00;99.90
22185;DHT22;11258;52.516;13.318;2023-03-24T12:54:57;16.70;99.90
22185;DHT22;11258;52.516;13.318;2023-03-24T12:57:35;16.70;99.90
22185;DHT22;11258;52.516;13.318;2023-03-24T13:00:08;16.70;99.90
22185;DHT22;11258;52.516;13.318;2023-03-24T13:02:50;16.60;99.90
22185;DHT22;11258;52.516;13.318;2023-03-24T13:05:21;16.70;99.90
22185;DHT22;11258;52.516;13.318;2023-03-24T13:07:49;16.70;99.90
22185;DHT22;11258;52.516;13.318;2023-03-24T13:10:29;16.50;99.90
22185;DHT22;11258;52.516;13.318;2023-03-24T13:13:16;16.40;99.90
22185;DHT22;11258;52.516;13.318;2023-03-24T13:15:46;16.40;99.90
22185;DHT22;11258;52.516;13.318;2023-03-24T13:18:33;16.30;99.90
22185;DHT22;11258;52.516;13.318;2023-03-24T13:21:32;16.20;99.90
22185;DHT22;11258;52.516;13.318;2023-03-24T13:24:07;16.10;99.90
22185;DHT22;11258;52.516;13.318;2023-03-24T13:35:05;15.70;99.90
22185;DHT22;11258;52.516;13.318;2023-03-24T13:37:42;15.60;99.90
22185;DHT22;11258;52.516;13.318;2023-03-24T13:40:23;15.50;99.90
22185;DHT22;11258;52.516;13.318;2023-03-24T13:50:37;15.30;99.90
22185;DHT22;11258;52.516;13.318;2023-03-24T13:53:13;15.30;99.90
22185;DHT22;11258;52.516;13.318;2023-03-24T13:55:51;15.30;99.90
22185;DHT22;11258;52.516;13.318;2023-03-24T13:58:21;15.30;99.90
22185;DHT22;11258;52.516;13.318;2023-03-24T14:03:43;15.30;99.90
22185;DHT22;11258;52.516;13.318;2023-03-24T14:06:10;15.20;99.90
22185;DHT22;11258;52.516;13.318;2023-03-24T14:14:18;14.50;99.90
22185;DHT22;11258;52.516;13.318;2023-03-24T14:19:42;14.50;99.90
22185;DHT22;11258;52.516;13.318;2023-03-24T14:22:21;14.60;99.90
22185;DHT22;11258;52.516;13.318;2023-03-24T14:24:59;14.60;99.90
22185;DHT22;11258;52.516;13.318;2023-03-24T14:27:35;14.80;99.90
22185;DHT22;11258;52.516;13.318;2023-03-24T14:30:15;14.90;99.90
22185;DHT22;11258;52.516;13.318;2023-03-24T14:32:46;14.90;99.90
22185;DHT22;11258;52.516;13.318;2023-03-24T14:37:53;15.10;99.90
22185;DHT22;11258;52.516;13.318;2023-03-24T14:40:28;15.20;99.90
22185;DHT22;11258;52.516;13.318;2023-03-24T14:43:11;15.30;99.90
22185;DHT22;11258;52.516;13.318;2023-03-24T14:46:07;15.40;99.90
22185;DHT22;11258;52.516;13.318;2023-03-24T14:54:48;15.40;99.90
22185;DHT22;11258;52.516;13.318;2023-03-24T14:57:25;15.50;99.90
22185;DHT22;11258;52.516;13.318;2023-03-24T15:00:00;15.60;99.90
22185;DHT22;11258;52.516;13.318;2023-03-24T15:08:00;15.80;99.90
22185;DHT22;11258;52.516;13.318;2023-03-24T15:10:35;15.70;99.90
22185;DHT22;11258;52.516;13.318;2023-03-24T15:13:01;15.70;99.90
22185;DHT22;11258;52.516;13.318;2023-03-24T15:15:27;15.60;99.90
22185;DHT22;11258;52.516;13.318;2023-03-24T15:17:53;15.60;99.90
22185;DHT22;11258;52.516;13.318;2023-03-24T15:20:27;15.60;99.90
22185;DHT22;11258;52.516;13.318;2023-03-24T15:22:54;15.70;99.90
22185;DHT22;11258;52.516;13.318;2023-03-24T15:25:27;15.60;99.90
22185;DHT22;11258;52.516;13.318;2023-03-24T15:27:54;15.60;99.90
22185;DHT22;11258;52.516;13.318;2023-03-24T15:30:21;15.70;99.90
22185;DHT22;11258;52.516;13.318;2023-03-24T15:32:47;15.70;99.90
22185;DHT22;11258;52.516;13.318;2023-03-24T15:35:22;15.80;99.90
22185;DHT22;11258;52.516;13.318;2023-03-24T15:37:53;15.80;99.90
22185;DHT22;11258;52.516;13.318;2023-03-24T15:42:55;15.80;99.90
22185;DHT22;11258;52.516;13.318;2023-03-24T15:45:27;15.70;99.90
22185;DHT22;11258;52.516;13.318;2023-03-24T15:47:54;15.70;99.90
22185;DHT22;11258;52.516;13.318;2023-03-24T15:50:38;15.60;99.90
22185;DHT22;11258;52.516;13.318;2023-03-24T15:55:42;15.50;99.90
22185;DHT22;11258;52.516;13.318;2023-03-24T15:58:28;15.40;99.90
22185;DHT22;11258;52.516;13.318;2023-03-24T16:00:59;15.40;99.90
22185;DHT22;11258;52.516;13.318;2023-03-24T16:03:28;15.40;99.90
22185;DHT22;11258;52.516;13.318;2023-03-24T16:05:55;15.40;99.90
22185;DHT22;11258;52.516;13.318;2023-03-24T16:11:01;15.50;99.90
22185;DHT22;11258;52.516;13.318;2023-03-24T16:13:32;15.40;99.90
22185;DHT22;11258;52.516;13.318;2023-03-24T16:18:38;15.20;99.90
22185;DHT22;11258;52.516;13.318;2023-03-24T16:21:15;15.20;99.90
22185;DHT22;11258;52.516;13.318;2023-03-24T16:23:43;15.10;99.90
22185;DHT22;11258;52.516;13.318;2023-03-24T16:26:23;15.10;99.90
22185;DHT22;11258;52.516;13.318;2023-03-24T16:28:50;15.10;99.90
22185;DHT22;11258;52.516;13.318;2023-03-24T16:31:20;15.00;99.90
22185;DHT22;11258;52.516;13.318;2023-03-24T16:33:47;14.90;99.90
22185;DHT22;11258;52.516;13.318;2023-03-24T16:36:13;14.90;99.90
22185;DHT22;11258;52.516;13.318;2023-03-24T16:38:40;14.90;99.90
22185;DHT22;11258;52.516;13.318;2023-03-24T16:41:07;14.80;99.90
22185;DHT22;11258;52.516;13.318;2023-03-24T16:43:35;14.80;99.90
22185;DHT22;11258;52.516;13.318;2023-03-24T16:46:02;14.70;99.90
22185;DHT22;11258;52.516;13.318;2023-03-24T16:48:28;14.70;99.90
22185;DHT22;11258;52.516;13.318;2023-03-24T16:50:53;14.60;99.90
22185;DHT22;11258;52.516;13.318;2023-03-24T16:53:20;14.60;99.90
22185;DHT22;11258;52.516;13.318;2023-03-24T16:55:46;14.60;99.90
22185;DHT22;11258;52.516;13.318;2023-03-24T16:58:14;14.60;99.90
22185;DHT22;11258;52.516;13.318;2023-03-24T17:00:43;14.50;99.90
22185;DHT22;11258;52.516;13.318;2023-03-24T17:03:10;14.50;99.90
22185;DHT22;11258;52.516;13.318;2023-03-24T17:05:48;14.50;99.90
22185;DHT22;11258;52.516;13.318;2023-03-24T17:08:15;14.50;99.90
22185;DHT22;11258;52.516;13.318;2023-03-24T17:10:44;14.40;99.90
22185;DHT22;11258;52.516;13.318;2023-03-24T17:13:22;14.40;99.90
22185;DHT22;11258;52.516;13.318;2023-03-24T17:15:49;14.40;99.90
22185;DHT22;11258;52.516;13.318;2023-03-24T17:18:15;14.30;99.90
22185;DHT22;11258;52.516;13.318;2023-03-24T17:20:40;14.20;99.90
22185;DHT22;11258;52.516;13.318;2023-03-24T17:23:09;14.20;99.90
22185;DHT22;11258;52.516;13.318;2023-03-24T17:25:35;14.10;99.90
22185;DHT22;11258;52.516;13.318;2023-03-24T17:28:02;14.00;99.90
22185;DHT22;11258;52.516;13.318;2023-03-24T17:30:28;13.90;99.90
22185;DHT22;11258;52.516;13.318;2023-03-24T17:32:54;13.90;99.90
22185;DHT22;11258;52.516;13.318;2023-03-24T17:35:22;13.80;99.90
22185;DHT22;11258;52.516;13.318;2023-03-24T17:37:48;13.80;99.90
22185;DHT22;11258;52.516;13.318;2023-03-24T17:40:17;13.70;99.90
22185;DHT22;11258;52.516;13.318;2023-03-24T17:42:45;13.70;99.90
22185;DHT22;11258;52.516;13.318;2023-03-24T17:45:16;13.60;99.90
22185;DHT22;11258;52.516;13.318;2023-03-24T17:47:42;13.60;99.90
22185;DHT22;11258;52.516;13.318;2023-03-24T17:50:09;13.60;99.90
22185;DHT22;11258;52.516;13.318;2023-03-24T17:52:41;13.50;99.90
22185;DHT22;11258;52.516;13.318;2023-03-24T17:55:07;13.50;99.90
22185;DHT22;11258;52.516;13.318;2023-03-24T17:57:34;13.50;99.90
22185;DHT22;11258;52.516;13.318;2023-03-24T18:00:00;13.50;99.90
22185;DHT22;11258;52.516;13.318;2023-03-24T18:02:25;13.50;99.90
22185;DHT22;11258;52.516;13.318;2023-03-24T18:04:51;13.50;99.90
22185;DHT22;11258;52.516;13.318;2023-03-24T18:07:18;13.60;99.90
22185;DHT22;11258;52.516;13.318;2023-03-24T18:09:44;13.50;99.90
22185;DHT22;11258;52.516;13.318;2023-03-24T18:12:10;13.50;99.90
22185;DHT22;11258;52.516;13.318;2023-03-24T18:14:36;13.60;99.90
22185;DHT22;11258;52.516;13.318;2023-03-24T18:17:01;13.50;99.90
22185;DHT22;11258;52.516;13.318;2023-03-24T18:19:27;13.50;99.90
22185;DHT22;11258;52.516;13.318;2023-03-24T18:21:53;13.50;99.90
22185;DHT22;11258;52.516;13.318;2023-03-24T18:24:18;13.40;99.90
22185;DHT22;11258;52.516;13.318;2023-03-24T18:26:44;13.40;99.90
22185;DHT22;11258;52.516;13.318;2023-03-24T18:29:10;13.30;99.90
22185;DHT22;11258;52.516;13.318;2023-03-24T18:31:36;13.30;99.90